Terminal Aerodrome Forecast
Issued by NWS

Home | Current Version | Previous Version | Graphics & Text | Print | Product List | Glossary On
Versions: 1 2 3 4 5 6 7 8 9 10 11 12 13 14 15 16 17 18
000
FTUS43 KBIS 272336
TAFMOT
TAF
KMOT 272336Z 2800/2824 07004KT P6SM VCSH BKN070
     FM280200 03007KT P6SM SCT090
     FM280800 02005KT P6SM OVC008
     FM281600 03005KT P6SM BKN010
     FM281900 04005KT P6SM BKN040=

USA.gov is the U.S. government's official web portal to all federal, state and local government web resources and services.